メインページ
METAR-TAF:

METAR-TAF

空港 :

ニノイ・アキノ国際空港

マニラ, フィリピン

緯度: 14-31N, 経度: 121-00E, 海抜: 14m

現時点の気象観測

当レポートは1時間3分前の20:00(UTC)に作成
東/北東の風 3kt
気温 28°C
湿度 84%
気圧 1009 hPa
視程10km以上
高度2300ftの雲はほとんどない
高度10000ftの雲は散在している

METAR: RPLL 222000Z 06003KT 9999 FEW023 SCT100 28/25 Q1009 NOSIG RMK A2980

時間: 05:03 (21:03 UTC)

予報

当レポートは4時間3分前の17:00(UTC)に作成
予報は22日の 18時(UTC)から 23日の 24時(UTC)まで有効
東/南東の風 6kt
視程10km以上
高度2500ftの雲はほとんどない
高度30000ftの雲は散在している
22日の 18時(UTC)から 22日の 24時(UTC)まで一時的に
の風 5kt
高度2200ftの雲はほとんどない, 積乱雲.
高度2300ftの雲はほとんどない
高度10000ftの千切れ雲あり
23日の 00時(UTC)から 23日の 06時(UTC)まで一時的に
南東の風 10kt
高度2300ftの雲はほとんどない, 積乱雲.
高度10000ftの雲は散在している

TAF: RPLL 221700Z 2218/2324 11006KT 9999 FEW025 SCT300 TX36/2306Z TN28/2222Z TEMPO 2218/2224 09005KT FEW022CB FEW023 BKN100 TEMPO 2300/2306 13010KT FEW023CB SCT100

4,000以上の空港の気象観測と天気予報(METAR報とTAF報)

利用可能な観測所は地図上に黄色い丸と赤い丸で示す。

丸の上にカーソルを重ねると観測所名を参照できる。

次にクリックすると気象観測と天気予報を参照できる。

マップの切り替え:黒色「×」印の緑ボタンをクリックして拡大、「-」印の緑ボタンをクリックして縮小、緑色の三角印をクリックして隣りの地図に切り替え


METAR-TAF: